Time;durP1;ratioP1;P1;durP2;ratioP2;P2;SDS_P1;SDS_P2;PMS_P1;PMS_P2;Temp;Humidity;BMP_temperature;BMP_pressure;BME280_temperature;BME280_humidity;BME280_pressure;Samples;Min_cycle;Max_cycle;Signal;HPM_P1;HPM_P2
2023/03/05 00:00:34;;;;;;;1.98;0.80;;;25.80;60.10;;;;;;5120410;23;20455;-53
2023/03/05 00:02:57;;;;;;;3.85;1.10;;;25.80;60.10;;;;;;5121136;23;20564;-52
2023/03/05 00:05:19;;;;;;;1.90;0.80;;;25.90;59.90;;;;;;5122722;23;20283;-52
2023/03/05 00:07:42;;;;;;;4.15;0.85;;;25.90;59.60;;;;;;5122524;23;20316;-55
2023/03/05 00:10:05;;;;;;;2.78;0.55;;;26.00;60.10;;;;;;5121616;23;20021;-54
2023/03/05 00:12:28;;;;;;;3.22;1.15;;;26.00;59.00;;;;;;5121650;23;20020;-54
2023/03/05 00:14:50;;;;;;;3.37;1.03;;;26.00;58.50;;;;;;5122724;23;20505;-55
2023/03/05 00:17:13;;;;;;;2.53;0.75;;;26.00;58.00;;;;;;5121239;23;20337;-49
2023/03/05 00:19:35;;;;;;;4.93;1.08;;;26.00;58.30;;;;;;5120619;23;20494;-48
2023/03/05 00:21:58;;;;;;;2.13;0.70;;;26.00;58.10;;;;;;5120844;23;20120;-54
2023/03/05 00:24:20;;;;;;;1.77;0.60;;;26.10;58.30;;;;;;5120046;23;20023;-50
2023/03/05 00:26:44;;;;;;;1.70;0.60;;;26.10;58.10;;;;;;5120311;23;20024;-51
2023/03/05 00:29:07;;;;;;;3.67;1.27;;;26.10;58.30;;;;;;5114014;23;20017;-49
2023/03/05 00:31:32;;;;;;;3.65;1.38;;;26.20;58.30;;;;;;5121104;23;20032;-49
2023/03/05 00:33:57;;;;;;;2.38;0.50;;;26.20;58.50;;;;;;5120765;23;20024;-48
2023/03/05 00:36:19;;;;;;;2.53;0.75;;;26.20;57.70;;;;;;5119990;23;20016;-53
2023/03/05 00:38:42;;;;;;;8.07;1.05;;;26.30;57.40;;;;;;5120818;23;20028;-54
2023/03/05 00:41:04;;;;;;;2.38;0.77;;;26.30;57.50;;;;;;5119133;23;20719;-47
2023/03/05 00:43:27;;;;;;;3.55;1.13;;;26.30;57.50;;;;;;5119823;23;20486;-50
2023/03/05 00:45:50;;;;;;;3.83;1.05;;;26.30;57.60;;;;;;5121889;23;20337;-51
2023/03/05 00:48:12;;;;;;;3.72;1.00;;;26.30;57.50;;;;;;5121392;23;20451;-52
2023/03/05 00:50:34;;;;;;;3.08;0.82;;;26.30;57.50;;;;;;5120651;23;20024;-50
2023/03/05 00:52:57;;;;;;;2.97;0.93;;;26.40;57.80;;;;;;5121643;23;20045;-47
2023/03/05 00:55:19;;;;;;;1.73;0.77;;;26.40;57.60;;;;;;5121616;23;20090;-47
2023/03/05 00:57:42;;;;;;;3.35;0.93;;;26.40;57.60;;;;;;5121266;23;20021;-49
2023/03/05 01:00:06;;;;;;;3.22;0.88;;;26.40;57.80;;;;;;5121312;23;20052;-49
2023/03/05 01:02:28;;;;;;;2.28;0.93;;;26.50;57.70;;;;;;5116401;23;20367;-48
2023/03/05 01:04:51;;;;;;;1.98;0.65;;;26.50;57.40;;;;;;5120381;23;20009;-51
2023/03/05 01:07:13;;;;;;;1.92;0.75;;;26.50;57.70;;;;;;5120619;23;20024;-55
2023/03/05 01:09:36;;;;;;;3.25;1.10;;;26.50;57.70;;;;;;5121189;23;20040;-53
2023/03/05 01:11:59;;;;;;;5.05;1.20;;;26.60;57.90;;;;;;5120817;23;20558;-47
2023/03/05 01:14:22;;;;;;;5.05;0.90;;;26.60;57.50;;;;;;5122099;23;20465;-58
2023/03/05 01:16:44;;;;;;;6.90;1.63;;;26.60;57.60;;;;;;5122417;23;20091;-52
2023/03/05 01:19:06;;;;;;;6.90;1.20;;;26.70;57.70;;;;;;5122239;23;20112;-52
2023/03/05 01:21:29;;;;;;;2.92;0.90;;;26.70;57.40;;;;;;5113360;23;20428;-58
2023/03/05 01:23:51;;;;;;;1.98;0.73;;;26.70;56.90;;;;;;5122810;23;20482;-57
2023/03/05 01:26:14;;;;;;;4.10;1.20;;;26.70;57.20;;;;;;5121782;23;20044;-57
2023/03/05 01:28:37;;;;;;;2.08;1.00;;;26.70;56.40;;;;;;5123096;23;20020;-56
2023/03/05 01:30:59;;;;;;;1.38;0.85;;;26.70;56.80;;;;;;5113513;23;20351;-54
2023/03/05 01:33:21;;;;;;;3.28;1.27;;;26.70;57.40;;;;;;5122339;23;20024;-57
2023/03/05 01:35:47;;;;;;;2.30;0.98;;;26.70;56.70;;;;;;5121859;23;20482;-56
2023/03/05 01:38:10;;;;;;;5.10;1.92;;;26.80;56.80;;;;;;5114389;23;20115;-55
2023/03/05 01:40:32;;;;;;;2.45;1.20;;;26.80;56.70;;;;;;5122224;23;20024;-56
2023/03/05 01:43:20;;;;;;;4.60;1.42;;;26.80;56.30;;;;;;5122636;23;20340;-56
2023/03/05 01:46:15;;;;;;;3.20;0.90;;;26.80;56.30;;;;;;5121566;23;20016;-55
2023/03/05 01:48:39;;;;;;;2.47;1.00;;;26.90;56.40;;;;;;5113474;23;20455;-57
2023/03/05 01:51:01;;;;;;;2.20;1.05;;;26.90;56.20;;;;;;5122430;23;20013;-52
2023/03/05 01:53:23;;;;;;;1.98;0.70;;;26.90;56.40;;;;;;5122308;23;20096;-55
2023/03/05 01:55:46;;;;;;;1.77;0.88;;;26.90;56.60;;;;;;5122161;23;20099;-53
2023/03/05 01:58:12;;;;;;;3.30;1.17;;;27.00;56.90;;;;;;5119445;23;20032;-57
2023/03/05 02:00:40;;;;;;;1.60;1.02;;;27.00;56.60;;;;;;5119509;23;20109;-56
2023/03/05 02:03:06;;;;;;;2.95;1.15;;;27.00;56.80;;;;;;5120163;23;20009;-56
2023/03/05 02:05:35;;;;;;;1.08;0.80;;;27.00;56.80;;;;;;5121745;23;20023;-56
2023/03/05 02:07:59;;;;;;;2.22;0.95;;;27.10;56.90;;;;;;5120548;23;20013;-55
2023/03/05 02:10:28;;;;;;;2.60;0.77;;;27.10;56.70;;;;;;5120616;23;20017;-58
2023/03/05 02:12:53;;;;;;;3.45;1.00;;;27.10;56.60;;;;;;5121389;23;20013;-56
2023/03/05 02:15:17;;;;;;;1.92;1.10;;;27.20;56.40;;;;;;5121289;23;20336;-56
2023/03/05 02:17:39;;;;;;;;;;;27.20;56.00;;;;;;5123058;23;20490;-57
2023/03/05 02:20:14;;;;;;;1.67;0.95;;;27.30;56.20;;;;;;5120413;23;19904;-56
2023/03/05 02:22:37;;;;;;;2.20;0.85;;;27.30;55.70;;;;;;5117579;23;20351;-57
2023/03/05 02:24:59;;;;;;;2.15;0.93;;;27.30;55.70;;;;;;5122872;23;20437;-58
2023/03/05 02:27:33;;;;;;;3.35;1.10;;;27.40;56.10;;;;;;5122343;23;20099;-59
2023/03/05 02:29:55;;;;;;;;;;;27.40;55.60;;;;;;5123256;23;20092;-58
2023/03/05 02:32:17;;;;;;;1.70;0.80;;;27.40;55.30;;;;;;5120493;23;19962;-56
2023/03/05 02:34:40;;;;;;;2.53;1.25;;;27.40;55.30;;;;;;5121960;23;20896;-56
2023/03/05 02:37:03;;;;;;;3.13;1.25;;;27.50;55.50;;;;;;5122497;23;20448;-55
2023/03/05 02:39:25;;;;;;;3.63;1.50;;;27.50;56.10;;;;;;5122673;23;20017;-59
2023/03/05 02:41:48;;;;;;;2.63;1.40;;;27.50;56.40;;;;;;5122497;23;20351;-58
2023/03/05 02:44:10;;;;;;;4.45;1.00;;;27.60;56.70;;;;;;5121688;23;20016;-51
2023/03/05 02:46:33;;;;;;;4.40;1.63;;;27.60;56.80;;;;;;5121168;23;20021;-56
2023/03/05 02:48:55;;;;;;;4.85;1.95;;;27.60;58.00;;;;;;5121384;23;20040;-58
2023/03/05 02:51:18;;;;;;;3.50;1.25;;;27.60;57.90;;;;;;5121752;23;20461;-56
2023/03/05 02:53:40;;;;;;;4.03;1.42;;;27.70;57.90;;;;;;5121891;23;20189;-57
2023/03/05 02:56:03;;;;;;;4.22;1.55;;;27.70;57.80;;;;;;5122237;23;20013;-60
2023/03/05 02:58:25;;;;;;;6.10;1.58;;;27.70;58.10;;;;;;5113394;23;20025;-57
2023/03/05 03:00:48;;;;;;;3.88;1.27;;;27.80;58.50;;;;;;5122657;23;20032;-59
2023/03/05 03:03:10;;;;;;;5.43;1.70;;;27.90;58.50;;;;;;5121670;23;20021;-58
2023/03/05 03:05:33;;;;;;;4.50;1.25;;;27.90;58.40;;;;;;5122329;23;20056;-57
2023/03/05 03:07:55;;;;;;;3.67;1.30;;;27.90;58.50;;;;;;5120955;23;20587;-58
2023/03/05 03:10:18;;;;;;;3.17;1.30;;;27.90;58.40;;;;;;5123376;23;20024;-58
2023/03/05 03:12:42;;;;;;;4.22;1.30;;;27.90;58.60;;;;;;5123402;23;20016;-56
2023/03/05 03:15:05;;;;;;;4.32;1.55;;;27.90;58.50;;;;;;5123214;23;20013;-58
2023/03/05 03:17:28;;;;;;;2.47;1.10;;;27.90;58.70;;;;;;5120601;23;20032;-58
2023/03/05 03:19:50;;;;;;;3.00;1.35;;;28.00;58.50;;;;;;5123521;23;20489;-56
2023/03/05 03:22:14;;;;;;;5.15;1.60;;;28.00;58.50;;;;;;5123277;23;20009;-59
2023/03/05 03:24:38;;;;;;;3.13;1.35;;;28.00;58.40;;;;;;5114460;23;20013;-56
2023/03/05 03:27:01;;;;;;;7.30;1.65;;;28.10;58.40;;;;;;5122756;23;20013;-57
2023/03/05 03:29:23;;;;;;;3.88;1.17;;;28.10;58.50;;;;;;5123542;23;20156;-58
2023/03/05 03:31:46;;;;;;;4.65;1.60;;;28.10;58.60;;;;;;5123444;23;20021;-58
2023/03/05 03:34:08;;;;;;;3.92;1.77;;;28.10;58.50;;;;;;5123228;23;20336;-58
2023/03/05 03:36:31;;;;;;;5.10;1.38;;;28.20;58.60;;;;;;5123509;23;20017;-57
2023/03/05 03:38:53;;;;;;;5.50;1.48;;;28.10;58.30;;;;;;5123455;23;20025;-58
2023/03/05 03:41:17;;;;;;;4.07;1.70;;;28.20;58.50;;;;;;5113327;23;20545;-58
2023/03/05 03:43:40;;;;;;;3.95;1.35;;;28.30;58.60;;;;;;5116445;23;20099;-57
2023/03/05 03:46:05;;;;;;;3.83;1.30;;;28.30;58.20;;;;;;5123464;23;20459;-58
2023/03/05 03:48:28;;;;;;;4.32;1.52;;;28.30;58.20;;;;;;5119260;23;20052;-56
2023/03/05 03:50:50;;;;;;;5.47;1.23;;;28.30;58.10;;;;;;5123980;23;20437;-57
2023/03/05 03:53:13;;;;;;;2.92;1.23;;;28.40;58.10;;;;;;5123028;23;20013;-58
2023/03/05 03:55:35;;;;;;;3.77;1.63;;;28.40;57.90;;;;;;5120900;23;20403;-58
2023/03/05 03:58:02;;;;;;;3.25;1.48;;;28.40;57.90;;;;;;5114980;23;20274;-58
2023/03/05 04:00:24;;;;;;;5.65;2.05;;;28.40;58.40;;;;;;5115098;23;20025;-57
2023/03/05 04:02:47;;;;;;;5.20;1.47;;;28.50;58.20;;;;;;5114759;23;20024;-58
2023/03/05 04:05:10;;;;;;;2.38;1.30;;;28.60;58.00;;;;;;5116126;23;20079;-55
2023/03/05 04:07:32;;;;;;;4.67;1.63;;;28.70;58.00;;;;;;5115355;23;20017;-58
2023/03/05 04:09:55;;;;;;;5.47;1.60;;;28.70;58.00;;;;;;5113763;23;20032;-56
2023/03/05 04:12:17;;;;;;;5.22;1.77;;;28.80;57.90;;;;;;5110012;23;20017;-58
2023/03/05 04:14:40;;;;;;;5.10;1.40;;;28.80;58.20;;;;;;5114149;23;20490;-57
2023/03/05 04:17:03;;;;;;;5.07;1.88;;;28.90;58.10;;;;;;5114776;23;20040;-58
2023/03/05 04:19:27;;;;;;;3.28;1.40;;;28.90;58.20;;;;;;5114337;23;20060;-58
2023/03/05 04:21:49;;;;;;;3.92;1.50;;;28.90;58.20;;;;;;5105824;23;20199;-58
2023/03/05 04:24:16;;;;;;;3.88;1.40;;;28.90;58.10;;;;;;5114210;23;20013;-58
2023/03/05 04:26:39;;;;;;;5.07;1.60;;;29.00;57.90;;;;;;5104943;23;20281;-58
2023/03/05 04:29:04;;;;;;;3.15;1.27;;;29.00;57.70;;;;;;5113706;23;20095;-59
2023/03/05 04:31:26;;;;;;;3.60;1.63;;;29.10;58.00;;;;;;5113126;23;20225;-58
2023/03/05 04:33:52;;;;;;;3.00;1.52;;;29.10;57.80;;;;;;5114577;23;20083;-58
2023/03/05 04:36:14;;;;;;;4.28;1.50;;;29.10;57.70;;;;;;5114208;23;20044;-57
2023/03/05 04:38:37;;;;;;;5.13;1.55;;;29.10;57.60;;;;;;5105693;23;20041;-58
2023/03/05 04:41:00;;;;;;;6.70;1.90;;;29.10;57.50;;;;;;5114343;23;20048;-55
2023/03/05 04:43:22;;;;;;;4.95;1.77;;;29.20;57.50;;;;;;5106434;23;20048;-58
2023/03/05 04:45:44;;;;;;;3.35;1.63;;;29.30;57.60;;;;;;5115203;23;20098;-57
2023/03/05 04:48:08;;;;;;;4.75;1.60;;;29.30;57.40;;;;;;5115110;23;20113;-58
2023/03/05 04:50:31;;;;;;;3.95;1.52;;;29.40;57.50;;;;;;5114541;23;20017;-57
2023/03/05 04:52:54;;;;;;;4.97;1.80;;;29.50;57.40;;;;;;5105690;23;20016;-59
2023/03/05 04:55:18;;;;;;;3.40;1.33;;;29.60;57.10;;;;;;5121706;23;20486;-58
2023/03/05 04:57:40;;;;;;;5.78;1.90;;;29.60;57.10;;;;;;5109067;23;20021;-58
2023/03/05 05:00:12;;;;;;;5.13;1.53;;;29.70;57.20;;;;;;5113943;23;20056;-55
2023/03/05 05:02:35;;;;;;;4.05;1.58;;;29.70;57.20;;;;;;5112946;23;20017;-57
2023/03/05 05:04:57;;;;;;;4.70;1.60;;;29.80;57.10;;;;;;5121044;23;20064;-54
2023/03/05 05:07:20;;;;;;;4.75;1.65;;;29.90;57.00;;;;;;5120728;23;20017;-58
2023/03/05 05:09:42;;;;;;;3.55;1.40;;;29.90;56.90;;;;;;5122079;23;20016;-58
2023/03/05 05:12:05;;;;;;;5.15;1.80;;;29.80;57.20;;;;;;5122938;23;20490;-57
2023/03/05 05:14:27;;;;;;;4.30;1.23;;;29.80;57.40;;;;;;5122695;23;20411;-57
2023/03/05 05:16:50;;;;;;;3.92;1.25;;;29.90;57.40;;;;;;5122289;23;20409;-59
2023/03/05 05:19:12;;;;;;;4.18;1.70;;;29.90;56.90;;;;;;5121961;23;20443;-57
2023/03/05 05:21:35;;;;;;;6.70;2.05;;;29.90;56.40;;;;;;5122872;23;20534;-59
2023/03/05 05:23:57;;;;;;;4.00;1.20;;;29.90;56.80;;;;;;5121761;23;20021;-56
2023/03/05 05:26:19;;;;;;;2.63;1.27;;;29.90;56.70;;;;;;5121212;23;20013;-54
2023/03/05 05:28:43;;;;;;;5.70;1.35;;;29.80;55.10;;;;;;5120459;23;20020;-55
2023/03/05 05:31:10;;;;;;;3.40;1.55;;;29.60;54.50;;;;;;5119814;23;20013;-51
2023/03/05 05:33:32;;;;;;;2.17;1.13;;;29.40;55.00;;;;;;5120629;23;20013;-51
2023/03/05 05:35:54;;;;;;;1.50;0.80;;;29.30;54.50;;;;;;5120198;23;20013;-45
2023/03/05 05:38:17;;;;;;;2.22;1.10;;;29.20;54.20;;;;;;5120183;23;20029;-50
2023/03/05 05:40:40;;;;;;;1.17;0.70;;;29.10;53.30;;;;;;5121125;23;20403;-47
2023/03/05 05:43:02;;;;;;;1.77;0.80;;;29.00;53.20;;;;;;5118093;23;20351;-54
2023/03/05 05:45:25;;;;;;;2.03;1.00;;;28.90;53.40;;;;;;5121183;23;20090;-51
2023/03/05 05:47:47;;;;;;;1.48;0.80;;;28.70;53.30;;;;;;5120271;23;20697;-46
2023/03/05 05:50:11;;;;;;;1.88;0.95;;;28.60;52.70;;;;;;5118477;23;20421;-47
2023/03/05 05:52:33;;;;;;;2.33;1.10;;;28.50;52.70;;;;;;5118388;23;20092;-44
2023/03/05 05:54:56;;;;;;;1.08;0.60;;;28.40;52.70;;;;;;5120980;23;20020;-47
2023/03/05 05:57:18;;;;;;;1.83;0.90;;;28.40;52.80;;;;;;5115258;23;20099;-54
2023/03/05 05:59:41;;;;;;;1.73;0.95;;;28.30;52.50;;;;;;5119420;23;20103;-47
2023/03/05 06:02:04;;;;;;;1.23;0.75;;;28.20;52.00;;;;;;5118151;23;20549;-47
2023/03/05 06:04:26;;;;;;;2.10;0.90;;;28.10;52.10;;;;;;5118332;23;20021;-49
2023/03/05 06:06:48;;;;;;;1.92;1.08;;;28.10;52.20;;;;;;5118227;23;20013;-47
2023/03/05 06:09:11;;;;;;;1.60;0.77;;;28.00;52.00;;;;;;5119952;23;20097;-54
2023/03/05 06:11:33;;;;;;;1.52;0.82;;;28.00;51.50;;;;;;5119220;23;20097;-54
2023/03/05 06:13:56;;;;;;;1.50;0.88;;;27.90;51.80;;;;;;5119280;23;20469;-48
2023/03/05 06:16:22;;;;;;;1.73;0.85;;;27.90;51.80;;;;;;5119263;23;20040;-50
2023/03/05 06:18:45;;;;;;;2.00;1.33;;;27.80;51.60;;;;;;5120198;23;20025;-47
2023/03/05 06:21:13;;;;;;;1.30;0.85;;;27.80;51.70;;;;;;5120278;23;20031;-53
2023/03/05 06:23:36;;;;;;;1.17;0.77;;;27.70;51.60;;;;;;5120708;23;20447;-49
2023/03/05 06:26:04;;;;;;;1.25;0.77;;;27.60;51.40;;;;;;5121290;23;20020;-53
2023/03/05 06:28:26;;;;;;;1.77;0.90;;;27.60;51.50;;;;;;5110787;23;20028;-46
2023/03/05 06:30:49;;;;;;;2.13;0.97;;;27.50;51.50;;;;;;5120762;23;20013;-52
2023/03/05 06:33:12;;;;;;;4.88;0.98;;;27.50;51.40;;;;;;5119961;23;20052;-53
2023/03/05 06:35:34;;;;;;;1.88;0.98;;;27.40;51.50;;;;;;5120557;23;20044;-52
2023/03/05 06:37:56;;;;;;;2.58;1.15;;;27.40;51.60;;;;;;5119669;23;20032;-53
2023/03/05 06:40:19;;;;;;;1.67;0.88;;;27.30;51.50;;;;;;5111836;23;20009;-55
2023/03/05 06:42:41;;;;;;;1.17;0.60;;;27.30;51.20;;;;;;5123160;23;20009;-45
2023/03/05 06:45:04;;;;;;;1.05;0.70;;;27.30;51.60;;;;;;5123791;23;20092;-47
2023/03/05 06:47:27;;;;;;;1.95;0.93;;;27.20;51.40;;;;;;5117845;23;20044;-56
2023/03/05 06:49:49;;;;;;;2.88;0.90;;;27.10;51.50;;;;;;5113317;23;20024;-50
2023/03/05 06:52:12;;;;;;;2.00;1.02;;;27.00;52.00;;;;;;5118280;23;20032;-47
2023/03/05 06:54:34;;;;;;;1.33;0.75;;;26.90;52.40;;;;;;5122891;23;20016;-44
2023/03/05 06:56:57;;;;;;;2.28;0.88;;;26.80;52.60;;;;;;5121776;23;20024;-46
2023/03/05 06:59:20;;;;;;;1.88;1.08;;;26.60;52.90;;;;;;5122235;23;20188;-43
2023/03/05 07:01:44;;;;;;;1.70;0.98;;;26.50;52.50;;;;;;5122273;23;20096;-48
2023/03/05 07:04:09;;;;;;;2.17;1.00;;;26.40;52.90;;;;;;5112526;23;20029;-53
2023/03/05 07:06:37;;;;;;;2.72;1.02;;;26.20;52.70;;;;;;5122382;23;20017;-48
2023/03/05 07:09:00;;;;;;;2.85;0.80;;;26.00;53.20;;;;;;5122409;23;20024;-46
2023/03/05 07:11:24;;;;;;;2.05;1.15;;;26.00;53.60;;;;;;5122549;23;20336;-47
2023/03/05 07:13:47;;;;;;;1.58;1.05;;;25.90;53.70;;;;;;5122305;23;20346;-48
2023/03/05 07:16:14;;;;;;;1.52;1.00;;;25.80;53.50;;;;;;5123398;23;20013;-49
2023/03/05 07:18:37;;;;;;;1.83;1.00;;;25.70;53.60;;;;;;5120846;23;20108;-48
2023/03/05 07:21:04;;;;;;;1.83;1.23;;;25.70;54.00;;;;;;5122952;23;20027;-47
2023/03/05 07:23:26;;;;;;;1.17;0.80;;;25.60;53.70;;;;;;5119565;23;20107;-47
2023/03/05 07:25:48;;;;;;;1.98;0.98;;;25.50;53.70;;;;;;5122774;23;20013;-45
2023/03/05 07:28:11;;;;;;;1.77;1.00;;;25.40;53.90;;;;;;5121423;23;20469;-43
2023/03/05 07:30:33;;;;;;;2.30;1.20;;;25.40;54.00;;;;;;5122826;23;20071;-45
2023/03/05 07:32:56;;;;;;;3.65;1.73;;;25.30;54.10;;;;;;5118793;23;20048;-46
2023/03/05 07:35:19;;;;;;;5.40;2.30;;;25.20;54.20;;;;;;5120860;23;20053;-44
2023/03/05 07:37:41;;;;;;;3.40;2.15;;;25.20;54.00;;;;;;5120686;23;20025;-42
2023/03/05 07:40:04;;;;;;;3.55;2.20;;;25.10;53.90;;;;;;5121515;23;20407;-45
2023/03/05 07:42:27;;;;;;;3.08;1.80;;;25.00;54.30;;;;;;5111002;23;20029;-43
2023/03/05 07:44:49;;;;;;;2.28;1.50;;;24.90;54.10;;;;;;5121611;23;20040;-42
2023/03/05 07:47:12;;;;;;;4.30;2.53;;;24.80;54.30;;;;;;5113793;23;20023;-43
2023/03/05 07:49:34;;;;;;;10.57;6.60;;;24.80;54.40;;;;;;5121658;23;20027;-47
2023/03/05 07:51:57;;;;;;;13.00;7.90;;;24.70;54.60;;;;;;5121220;23;20020;-46
2023/03/05 07:54:19;;;;;;;13.13;8.73;;;24.70;55.10;;;;;;5120379;23;20055;-44
2023/03/05 07:56:42;;;;;;;14.13;8.70;;;24.60;55.00;;;;;;5121630;23;20005;-45
2023/03/05 07:59:08;;;;;;;12.20;8.35;;;24.60;55.10;;;;;;5120338;23;20029;-44
2023/03/05 08:01:31;;;;;;;11.32;7.22;;;24.50;54.90;;;;;;5119273;23;20020;-46
2023/03/05 08:03:53;;;;;;;12.23;6.68;;;24.30;54.70;;;;;;5119832;23;20096;-46
2023/03/05 08:06:16;;;;;;;9.05;5.53;;;24.10;55.10;;;;;;5116436;23;20052;-43
2023/03/05 08:08:39;;;;;;;8.48;5.38;;;24.00;55.70;;;;;;5110319;23;20044;-45
2023/03/05 08:11:13;;;;;;;9.60;4.88;;;24.00;55.80;;;;;;5120157;23;20447;-46
2023/03/05 08:13:36;;;;;;;8.10;4.47;;;24.00;55.50;;;;;;5119428;23;20024;-48
2023/03/05 08:15:58;;;;;;;5.53;3.77;;;23.90;55.30;;;;;;5119749;23;20013;-44
2023/03/05 08:18:21;;;;;;;6.07;3.42;;;23.80;55.60;;;;;;5119353;23;20266;-43
2023/03/05 08:20:43;;;;;;;5.05;3.33;;;23.80;55.80;;;;;;5119924;23;20013;-44
2023/03/05 08:23:06;;;;;;;5.30;2.78;;;23.80;55.40;;;;;;5119215;23;20017;-46
2023/03/05 08:25:28;;;;;;;4.88;2.70;;;23.70;55.90;;;;;;5120406;23;20518;-42
2023/03/05 08:27:50;;;;;;;4.65;2.53;;;23.70;55.80;;;;;;5116919;23;20044;-44
2023/03/05 08:30:16;;;;;;;3.65;2.33;;;23.70;55.50;;;;;;5120255;23;20017;-41
2023/03/05 08:32:39;;;;;;;3.53;2.10;;;23.60;55.10;;;;;;5117562;23;20444;-43
2023/03/05 08:35:03;;;;;;;4.68;2.08;;;23.60;55.60;;;;;;5122113;23;20013;-45
2023/03/05 08:37:25;;;;;;;3.55;2.42;;;23.50;55.50;;;;;;5111794;23;20020;-46
2023/03/05 08:39:48;;;;;;;3.30;1.83;;;23.50;56.20;;;;;;5123636;23;20863;-41
2023/03/05 08:42:10;;;;;;;2.78;1.70;;;23.50;56.20;;;;;;5143393;23;20477;-42
2023/03/05 08:44:33;;;;;;;3.40;1.75;;;23.60;56.60;;;;;;5144068;23;20016;-43
2023/03/05 08:46:55;;;;;;;2.75;1.73;;;23.80;57.00;;;;;;5133919;23;20402;-44
2023/03/05 08:49:18;;;;;;;3.15;1.67;;;23.90;57.20;;;;;;5142864;23;20028;-43
2023/03/05 08:51:40;;;;;;;2.35;1.30;;;24.00;57.50;;;;;;5143417;23;20394;-42
2023/03/05 08:54:06;;;;;;;2.53;1.35;;;24.10;57.60;;;;;;5141104;23;20017;-42
2023/03/05 08:56:30;;;;;;;2.67;1.40;;;24.20;58.00;;;;;;5124181;23;20044;-44
2023/03/05 08:58:52;;;;;;;1.83;1.00;;;24.40;58.20;;;;;;5136545;23;20029;-43
2023/03/05 09:01:15;;;;;;;1.45;1.02;;;24.40;58.10;;;;;;5136655;23;20074;-43
2023/03/05 09:03:37;;;;;;;1.40;0.88;;;24.60;58.40;;;;;;5135629;23;20024;-45
2023/03/05 09:06:06;;;;;;;1.77;0.85;;;24.60;58.40;;;;;;5138198;23;20012;-45
2023/03/05 09:08:29;;;;;;;1.88;1.13;;;24.70;58.60;;;;;;5136569;23;20383;-44
2023/03/05 09:10:51;;;;;;;1.30;0.88;;;24.80;58.70;;;;;;5134781;23;20252;-44
2023/03/05 09:13:14;;;;;;;2.60;1.05;;;25.00;58.70;;;;;;5137430;23;20018;-42
2023/03/05 09:15:37;;;;;;;1.10;0.80;;;25.00;59.00;;;;;;5137034;23;20410;-45
2023/03/05 09:17:59;;;;;;;1.98;0.82;;;25.10;59.20;;;;;;5134739;23;20363;-43
2023/03/05 09:20:22;;;;;;;10.52;1.85;;;25.20;59.20;;;;;;5135801;23;20067;-40
2023/03/05 09:22:44;;;;;;;3.20;1.13;;;25.30;59.40;;;;;;5135937;23;20504;-43
2023/03/05 09:25:08;;;;;;;6.28;1.60;;;25.40;59.40;;;;;;5134614;23;20020;-42
2023/03/05 09:27:34;;;;;;;1.50;0.88;;;25.40;59.50;;;;;;5136753;22;20013;-43
2023/03/05 09:29:56;;;;;;;2.67;0.73;;;25.50;59.50;;;;;;5135354;23;20016;-43
2023/03/05 09:32:19;;;;;;;6.90;0.98;;;25.60;59.60;;;;;;5133708;23;20580;-44
2023/03/05 09:34:41;;;;;;;2.25;0.90;;;25.60;59.70;;;;;;5134011;23;20105;-44
2023/03/05 09:37:04;;;;;;;2.33;0.90;;;25.70;59.80;;;;;;5136052;23;20438;-44
2023/03/05 09:39:27;;;;;;;2.92;1.15;;;25.70;59.80;;;;;;5134796;23;20035;-42
2023/03/05 09:42:27;;;;;;;7.22;0.85;;;25.80;59.90;;;;;;5136921;23;20022;-47
2023/03/05 09:45:05;;;;;;;6.28;1.10;;;25.90;60.00;;;;;;5136550;23;20226;-44
2023/03/05 09:48:01;;;;;;;3.15;0.82;;;26.00;60.00;;;;;;5134412;23;20514;-50
2023/03/05 09:50:35;;;;;;;4.88;1.20;;;26.00;60.10;;;;;;5136965;23;20532;-49
2023/03/05 09:53:11;;;;;;;2.88;1.27;;;26.10;60.90;;;;;;5134971;23;20024;-48
2023/03/05 09:55:41;;;;;;;3.53;1.15;;;26.20;60.20;;;;;;5128300;23;20087;-47
2023/03/05 09:58:12;;;;;;;5.28;1.38;;;26.20;60.40;;;;;;5134862;23;20024;-53
2023/03/05 10:00:44;;;;;;;3.25;1.10;;;26.30;60.40;;;;;;5137154;23;20355;-49
2023/03/05 10:03:18;;;;;;;2.72;1.00;;;26.30;60.40;;;;;;5134939;23;20026;-53
2023/03/05 10:06:01;;;;;;;2.22;0.90;;;26.30;60.40;;;;;;5134831;23;20115;-49
2023/03/05 10:08:32;;;;;;;1.08;0.70;;;26.40;60.60;;;;;;5135733;23;20020;-47
2023/03/05 10:10:55;;;;;;;2.03;0.77;;;26.40;60.60;;;;;;5136005;23;20017;-44
2023/03/05 10:13:32;;;;;;;1.58;0.68;;;26.50;60.70;;;;;;5136952;23;20091;-48
2023/03/05 10:16:27;;;;;;;2.13;0.82;;;26.60;60.90;;;;;;5135949;23;20358;-48
2023/03/05 10:18:58;;;;;;;1.40;0.82;;;26.60;61.50;;;;;;5133875;23;20032;-46
2023/03/05 10:21:41;;;;;;;0.70;0.50;;;26.70;61.10;;;;;;5134281;23;20012;-55
2023/03/05 10:24:11;;;;;;;2.45;0.80;;;26.70;61.30;;;;;;5134452;23;20016;-44
2023/03/05 10:26:52;;;;;;;2.22;0.80;;;26.80;61.50;;;;;;5134341;23;20043;-47
2023/03/05 10:29:48;;;;;;;0.85;0.60;;;26.90;61.50;;;;;;5128057;23;20028;-48
2023/03/05 10:32:28;;;;;;;0.93;0.70;;;26.90;61.40;;;;;;5133326;23;20027;-50
2023/03/05 10:35:38;;;;;;;1.00;0.52;;;27.00;61.40;;;;;;5135744;23;20016;-44
2023/03/05 10:38:31;;;;;;;1.00;0.70;;;27.00;61.40;;;;;;5112329;23;20028;-45
2023/03/05 10:40:55;;;;;;;1.17;0.77;;;27.00;61.40;;;;;;5126900;23;20086;-46
2023/03/05 10:43:36;;;;;;;0.82;0.60;;;27.10;61.50;;;;;;5134428;23;20020;-45
2023/03/05 10:46:00;;;;;;;1.33;0.60;;;27.10;61.60;;;;;;5134811;23;20016;-46
2023/03/05 10:48:42;;;;;;;0.98;0.60;;;27.20;61.70;;;;;;5134306;23;20016;-48
2023/03/05 10:51:12;;;;;;;1.65;0.70;;;27.20;61.70;;;;;;5133647;23;20327;-48
2023/03/05 10:53:57;;;;;;;1.05;0.60;;;27.20;61.90;;;;;;5136758;23;20454;-49
2023/03/05 10:56:22;;;;;;;0.50;0.40;;;27.30;62.10;;;;;;5141357;23;20235;-48
2023/03/05 10:58:45;;;;;;;1.05;0.65;;;27.30;62.20;;;;;;5129231;23;20035;-47
2023/03/05 11:01:11;;;;;;;1.52;0.90;;;27.30;62.30;;;;;;5134739;23;20336;-53
2023/03/05 11:04:04;;;;;;;0.75;0.50;;;27.40;62.50;;;;;;5140710;23;20358;-49
2023/03/05 11:06:47;;;;;;;0.93;0.60;;;27.40;62.40;;;;;;5144852;23;20463;-46
2023/03/05 11:09:28;;;;;;;1.17;0.53;;;27.40;62.40;;;;;;5130796;23;20052;-49
2023/03/05 11:12:14;;;;;;;1.23;0.43;;;27.50;62.40;;;;;;5142028;23;20099;-45
2023/03/05 11:14:43;;;;;;;1.45;0.57;;;27.50;62.40;;;;;;5143502;23;20508;-54
2023/03/05 11:17:27;;;;;;;0.82;0.50;;;27.50;62.50;;;;;;5132157;23;20056;-52
2023/03/05 11:19:49;;;;;;;1.00;0.50;;;27.50;62.40;;;;;;5143354;23;20043;-57
2023/03/05 11:22:23;;;;;;;2.15;0.50;;;27.60;62.60;;;;;;5145364;23;20012;-51
2023/03/05 11:25:05;;;;;;;;;;;27.60;62.60;;;;;;5136594;23;20024;-49
2023/03/05 11:27:35;;;;;;;1.40;0.75;;;27.60;62.20;;;;;;5133887;23;19948;-52
2023/03/05 11:29:58;;;;;;;2.50;1.02;;;27.60;62.10;;;;;;5146588;23;20031;-49
2023/03/05 11:32:25;;;;;;;1.58;0.80;;;27.60;62.00;;;;;;5148423;23;20008;-52
2023/03/05 11:34:47;;;;;;;4.15;1.00;;;27.60;62.40;;;;;;5134978;23;20158;-55
2023/03/05 11:37:24;;;;;;;2.40;1.15;;;27.50;62.50;;;;;;5147457;23;20059;-52
2023/03/05 11:39:47;;;;;;;4.65;1.00;;;27.50;62.60;;;;;;5146588;23;20024;-58
2023/03/05 11:42:24;;;;;;;8.95;2.38;;;27.50;63.20;;;;;;5145592;23;20466;-44
2023/03/05 11:44:55;;;;;;;7.28;1.48;;;27.50;63.50;;;;;;5137204;23;20017;-47
2023/03/05 11:47:48;;;;;;;6.40;1.42;;;27.60;63.80;;;;;;5113517;23;20071;-48
2023/03/05 11:50:26;;;;;;;8.30;1.52;;;27.50;63.70;;;;;;5147483;23;20529;-47
2023/03/05 11:53:02;;;;;;;5.35;1.20;;;27.60;63.80;;;;;;5137154;23;20043;-46
2023/03/05 11:55:34;;;;;;;2.38;1.10;;;27.60;63.50;;;;;;5134689;23;20074;-46
2023/03/05 11:58:38;;;;;;;3.35;1.00;;;27.60;63.60;;;;;;5136637;23;20100;-46
2023/03/05 12:01:03;;;;;;;4.35;1.30;;;27.60;63.50;;;;;;5133793;23;20012;-46
2023/03/05 12:03:31;;;;;;;4.28;1.08;;;27.60;63.50;;;;;;5144286;23;20017;-46
2023/03/05 12:05:59;;;;;;;3.22;1.15;;;27.60;63.40;;;;;;5145426;23;20023;-46
2023/03/05 12:08:34;;;;;;;2.95;1.17;;;27.60;63.40;;;;;;5144342;23;20020;-46
2023/03/05 12:11:26;;;;;;;10.50;2.03;;;27.70;63.50;;;;;;5145390;23;20023;-51
2023/03/05 12:14:15;;;;;;;4.68;1.27;;;27.70;63.50;;;;;;5144478;23;20451;-49
2023/03/05 12:17:08;;;;;;;5.93;1.17;;;27.70;63.50;;;;;;5144252;23;20021;-51
2023/03/05 12:19:46;;;;;;;3.70;1.23;;;27.70;63.40;;;;;;5137937;23;20509;-48
2023/03/05 12:22:22;;;;;;;3.03;0.95;;;27.70;63.50;;;;;;5144801;23;20017;-47
2023/03/05 12:24:44;;;;;;;6.80;1.10;;;27.60;63.30;;;;;;5143558;23;20016;-47
2023/03/05 12:27:30;;;;;;;2.17;1.00;;;27.70;63.50;;;;;;5145663;23;20044;-48
2023/03/05 12:29:53;;;;;;;3.53;0.95;;;27.70;63.50;;;;;;5145233;23;20426;-48
2023/03/05 12:32:24;;;;;;;5.85;1.35;;;27.70;63.50;;;;;;5145996;23;20070;-48
2023/03/05 12:34:55;;;;;;;3.25;1.27;;;27.70;63.40;;;;;;5136181;23;20019;-53
2023/03/05 12:37:20;;;;;;;2.90;0.77;;;27.70;63.40;;;;;;5146126;23;20399;-49
2023/03/05 12:39:49;;;;;;;8.05;1.45;;;27.70;63.40;;;;;;5144378;23;20020;-52
2023/03/05 12:42:30;;;;;;;3.53;1.10;;;27.70;63.50;;;;;;5135015;23;20353;-53